Unionville, Pennsylvania
Current Conditions -  °F | °C
As of 2:15 PM on Friday 28 Nov 2014 (Local Time) from KMQS Reporting Station
Scattered Clouds Scattered Clouds  
Wind Chill: 21°   Ceiling: Unl
Heat Index: 32°   Visibility: 10mi
Dew Point: 19°   Wind: 16mph
Humidity: 60%   Direction: 310°NW
Pressure: 30.21"   Gusts: 20mph
Location:  39.9°N, 75.73°W
Report Text: KMQS 281915Z AUTO 31014G17KT 10SM SCT037 00/M07 A3021 RMK AO2
Loading
Personal Weather Stations






























Interactive Weather Map New forecast layout! Learn more

10-Day Weather Forecast

Advertisements
Track Severe Weather on mobile